.
WxDataArchive / Data Records for 2007-05-01
2007-04-30 May 2007 2007-05-02

Data Records for Tuesday, 01 May 2007

Time	Temp	Chill	HIndex	Humid	Dewpt	 Wind 	HiWind	WindDir	Rain 	Barom 
-----	----	-----	------	-----	-----	------	------	-------	-----	----- 
00:00	55.4	55.4	55.4	72	46.5	4	7	112	0.00	29.900 
00:05	55.3	55.3	55.3	73	46.8	3	6	90	0.00	29.903 
00:10	55.1	55.1	55.1	73	46.6	2	5	135	0.00	29.902 
00:15	55.0	55.0	55.0	73	46.5	2	5	112	0.00	29.901 
00:20	54.8	54.8	54.8	73	46.3	4	7	112	0.00	29.892 
00:25	54.8	54.8	54.8	72	45.9	5	10	112	0.00	29.887 
00:30	55.0	55.0	55.0	72	46.1	5	10	90	0.00	29.884 
00:35	54.8	54.8	54.8	71	45.6	2	5	112	0.00	29.885 
00:40	54.8	54.8	54.8	71	45.6	1	6	90	0.00	29.889 
00:45	54.7	54.7	54.7	72	45.9	1	2	90	0.00	29.890 
00:50	54.5	54.5	54.5	72	45.7	2	3	90	0.00	29.890 
00:55	54.4	54.4	54.4	73	45.9	1	4	90	0.00	29.892 
01:00	53.9	53.9	53.9	74	45.8	0	2	112	0.00	29.892 
01:05	53.6	53.6	53.6	75	45.9	0	1	112	0.00	29.888 
01:10	53.3	53.3	53.3	76	45.9	1	3	112	0.00	29.882 
01:15	53.1	53.1	53.1	76	45.7	1	3	135	0.00	29.878 
01:20	52.9	52.9	52.9	76	45.5	1	4	90	0.00	29.874 
01:25	52.8	52.8	52.8	76	45.4	2	4	90	0.00	29.874 
01:30	52.6	52.6	52.6	76	45.3	2	5	90	0.00	29.872 
01:35	52.6	52.6	52.6	76	45.3	2	4	90	0.00	29.868 
01:40	52.6	52.6	52.6	76	45.3	2	5	90	0.00	29.867 
01:45	52.6	52.6	52.6	76	45.3	2	5	90	0.00	29.865 
01:50	52.5	52.5	52.5	76	45.2	2	5	90	0.00	29.863 
01:55	52.5	52.5	52.5	76	45.2	1	3	90	0.00	29.863 
02:00	52.3	52.3	52.3	76	45.0	1	4	90	0.00	29.867 
02:05	52.2	52.2	52.2	77	45.2	1	3	112	0.00	29.864 
02:10	51.9	51.9	51.9	77	44.9	1	2	68	0.00	29.879 
02:15	51.7	51.7	51.7	76	44.4	1	2	45	0.00	29.895 
02:20	51.7	51.7	51.7	74	43.7	1	3	68	0.00	29.879 
02:25	52.0	52.0	52.0	73	43.6	1	5	90	0.00	29.887 
02:30	52.2	52.2	52.2	72	43.4	1	6	68	0.00	29.888 
02:35	52.5	52.5	52.5	69	42.6	3	9	112	0.00	29.876 
02:40	52.5	52.5	52.5	68	42.2	2	10	68	0.00	29.881 
02:45	52.3	52.3	52.3	68	42.1	2	8	45	0.00	29.877 
02:50	52.2	52.2	52.2	68	42.0	3	6	112	0.00	29.873 
02:55	52.0	52.0	52.0	69	42.1	1	5	90	0.00	29.875 
03:00	51.7	51.7	51.7	70	42.2	1	5	68	0.00	29.881 
03:05	51.6	51.6	51.6	71	42.5	1	4	90	0.00	29.872 
03:10	51.4	51.4	51.4	72	42.7	1	7	90	0.00	29.873 
03:15	51.3	51.3	51.3	73	42.9	2	6	90	0.00	29.872 
03:20	51.1	51.1	51.1	73	42.7	1	4	90	0.00	29.874 
03:25	51.1	51.1	51.1	74	43.1	1	4	90	0.00	29.873 
03:30	51.0	51.0	51.0	75	43.4	2	6	112	0.00	29.869 
03:35	50.8	50.8	50.8	76	43.5	2	6	112	0.00	29.865 
03:40	50.7	50.7	50.7	77	43.8	2	6	90	0.00	29.862 
03:45	50.5	50.5	50.5	77	43.6	2	5	90	0.00	29.865 
03:50	50.4	50.4	50.4	78	43.8	2	4	90	0.00	29.865 
03:55	50.2	50.2	50.2	78	43.6	1	4	90	0.00	29.864 
04:00	50.1	50.1	50.1	79	43.8	2	3	90	0.00	29.860 
04:05	49.9	49.9	49.9	80	44.0	1	2	90	0.00	29.860 
04:10	49.8	49.8	49.8	80	43.9	1	2	90	0.00	29.859 
04:15	49.6	49.6	49.6	80	43.7	1	3	90	0.00	29.857 
04:20	49.6	49.6	49.6	81	44.0	0	2	90	0.00	29.856 
04:25	49.5	49.5	49.5	81	43.9	1	3	90	0.00	29.854 
04:30	49.4	49.4	49.4	81	43.8	0	2	90	0.00	29.856 
04:35	49.4	49.4	49.4	81	43.8	1	2	90	0.00	29.855 
04:40	49.2	49.2	49.2	81	43.6	0	2	90	0.00	29.853 
04:45	49.2	49.2	49.2	81	43.6	0	2	90	0.00	29.845 
04:50	49.4	49.4	49.4	80	43.5	1	4	90	0.00	29.843 
04:55	49.5	49.5	49.5	80	43.6	0	2	90	0.00	29.843 
05:00	49.6	49.6	49.6	80	43.7	0	2	90	0.00	29.842 
05:05	49.6	49.6	49.6	80	43.7	1	2	90	0.00	29.840 
05:10	49.6	49.6	49.6	80	43.7	0	2	90	0.00	29.836 
05:15	49.6	49.6	49.6	80	43.7	0	2	90	0.00	29.829 
05:20	49.6	49.6	49.6	80	43.7	0	1	90	0.00	29.827 
05:25	49.5	49.5	49.5	80	43.6	0	1	90	0.00	29.826 
05:30	49.4	49.4	49.4	81	43.8	0	1	90	0.00	29.824 
05:35	49.4	49.4	49.4	81	43.8	0	2	90	0.00	29.824 
05:40	49.2	49.2	49.2	81	43.6	0	1	90	0.00	29.822 
05:45	49.1	49.1	49.1	82	43.8	0	1	90	0.00	29.823 
05:50	48.9	48.9	48.9	82	43.6	0	1	90	0.00	29.821 
05:55	48.8	48.8	48.8	82	43.6	0	2	90	0.00	29.820 
06:00	48.8	48.8	48.8	83	43.9	0	1	90	0.00	29.816 
06:05	48.8	48.8	48.8	83	43.9	0	0	---	0.00	29.817 
06:10	48.6	48.6	48.6	83	43.7	0	0	---	0.00	29.817 
06:15	48.6	48.6	48.6	83	43.7	0	0	---	0.00	29.820 
06:20	48.6	48.6	48.6	84	44.0	0	0	---	0.00	29.822 
06:25	48.6	48.6	48.6	84	44.0	0	0	---	0.00	29.822 
06:30	48.8	48.8	48.8	84	44.2	0	0	---	0.00	29.820 
06:35	49.4	49.4	49.4	82	44.1	0	0	---	0.00	29.819 
06:40	50.2	50.2	50.2	80	44.3	0	1	90	0.00	29.816 
06:45	51.0	51.0	51.0	78	44.4	0	2	90	0.00	29.815 
06:50	51.7	51.7	51.7	77	44.7	0	2	90	0.00	29.815 
06:55	52.6	52.6	52.6	75	44.9	0	1	90	0.00	29.813 
07:00	53.3	53.3	53.3	73	44.9	0	2	90	0.00	29.812 
07:05	54.1	54.1	54.1	74	46.0	0	0	---	0.00	29.817 
07:10	54.4	54.4	54.4	73	45.9	0	2	90	0.00	29.817 
07:15	55.0	55.0	55.0	72	46.1	1	2	90	0.00	29.819 
07:20	55.4	55.4	55.4	72	46.5	0	2	90	0.00	29.819 
07:25	56.2	56.2	56.2	71	46.9	0	2	90	0.00	29.819 
07:30	56.9	56.9	56.9	72	48.0	0	1	90	0.00	29.820 
07:35	57.2	57.2	57.2	70	47.5	0	2	90	0.00	29.821 
07:40	57.5	57.5	57.5	70	47.8	1	4	248	0.00	29.817 
07:45	57.8	57.8	57.8	72	48.8	1	3	248	0.00	29.813 
07:50	58.7	58.7	58.7	71	49.3	1	2	248	0.00	29.811 
07:55	59.6	59.6	59.6	71	50.2	1	3	248	0.00	29.815 
08:00	60.2	60.2	60.2	69	50.0	1	3	248	0.00	29.814 
08:05	60.9	60.9	60.9	68	50.3	2	5	248	0.00	29.816 
08:10	61.6	61.6	61.6	68	50.9	1	2	248	0.00	29.811 
08:15	62.6	62.6	62.6	67	51.5	1	2	248	0.00	29.809 
08:20	63.5	63.5	63.5	67	52.3	1	4	248	0.00	29.818 
08:25	64.3	64.3	64.3	64	51.9	2	6	248	0.00	29.818 
08:30	65.0	65.0	65.0	63	52.1	3	5	248	0.00	29.815 
08:35	65.5	65.5	65.5	62	52.1	1	4	248	0.00	29.812 
08:40	66.3	66.3	66.3	62	52.9	2	5	248	0.00	29.804 
08:45	67.1	67.1	67.1	60	52.7	2	4	248	0.00	29.804 
08:50	67.6	67.6	67.6	60	53.2	2	6	248	0.00	29.803 
08:55	68.4	68.4	68.4	58	53.0	1	4	248	0.00	29.801 
09:00	68.8	68.8	68.8	56	52.5	3	6	248	0.00	29.800 
09:05	68.8	68.8	68.8	57	52.9	3	6	248	0.00	29.796 
09:10	69.1	69.1	69.1	59	54.2	3	6	248	0.00	29.805 
09:15	69.8	69.8	69.8	58	54.3	1	4	270	0.00	29.800 
09:20	70.1	70.1	70.1	58	54.6	1	3	248	0.00	29.799 
09:25	70.6	70.6	70.6	55	53.6	2	5	248	0.00	29.796 
09:30	70.9	70.9	70.9	56	54.4	1	4	225	0.00	29.794 
09:35	71.5	71.5	71.5	58	55.9	0	2	270	0.00	29.792 
09:40	71.8	71.8	71.8	56	55.2	1	3	270	0.00	29.793 
09:45	72.1	72.1	72.1	53	54.0	2	4	270	0.00	29.790 
09:50	72.8	72.8	72.8	55	55.7	1	3	248	0.00	29.783 
09:55	73.3	73.3	73.3	52	54.6	2	5	248	0.00	29.780 
10:00	73.9	73.9	73.9	53	55.7	2	5	248	0.00	29.778 
10:05	74.6	74.6	74.6	52	55.8	1	4	248	0.00	29.779 
10:10	75.3	75.3	77.7	50	55.4	1	3	248	0.00	29.780 
10:15	76.0	76.0	78.1	51	56.5	1	2	248	0.00	29.778 
10:20	76.5	76.5	78.3	49	55.9	2	4	248	0.00	29.779 
10:25	76.8	76.8	78.5	52	57.8	1	3	225	0.00	29.779 
10:30	77.0	77.0	78.6	49	56.4	1	3	225	0.00	29.778 
10:35	77.2	77.2	78.7	50	57.1	2	6	248	0.00	29.778 
10:40	77.7	77.7	79.1	51	58.1	1	4	225	0.00	29.777 
10:45	78.1	78.1	79.2	48	56.8	2	4	225	0.00	29.775 
10:50	78.5	78.5	79.6	50	58.3	3	6	270	0.00	29.777 
10:55	78.8	78.8	79.9	51	59.1	2	4	248	0.00	29.775 
11:00	79.2	79.2	80.2	51	59.5	2	4	248	0.00	29.773 
11:05	79.4	79.4	80.3	50	59.1	4	10	248	0.00	29.769 
11:10	79.9	79.9	80.8	51	60.1	1	4	225	0.00	29.764 
11:15	80.5	80.5	81.6	53	61.8	2	7	248	0.00	29.764 
11:20	80.7	80.7	81.2	48	59.2	3	7	248	0.00	29.763 
11:25	80.9	80.9	81.3	47	58.8	3	9	248	0.00	29.761 
11:30	81.1	81.1	81.6	48	59.5	3	9	248	0.00	29.761 
11:35	81.8	81.8	81.9	45	58.4	3	7	248	0.00	29.760 
11:40	82.0	82.0	82.2	46	59.1	4	12	248	0.00	29.760 
11:45	81.6	81.6	81.6	44	57.5	5	14	248	0.00	29.759 
11:50	81.6	81.6	81.6	44	57.5	5	12	248	0.00	29.757 
11:55	82.0	82.0	82.1	45	58.5	5	12	248	0.00	29.758 
12:00	81.8	81.8	81.8	44	57.7	6	18	270	0.00	29.759 
12:05	81.2	81.2	81.5	46	58.4	5	14	248	0.00	29.761 
12:10	81.2	81.2	81.6	47	59.0	4	7	248	0.00	29.760 
12:15	81.1	81.1	81.6	48	59.5	5	11	248	0.00	29.759 
12:20	81.6	81.6	82.1	48	60.0	4	9	270	0.00	29.757 
12:25	82.2	82.2	83.0	50	61.7	4	9	248	0.00	29.754 
12:30	83.0	83.0	83.5	48	61.3	4	11	248	0.00	29.751 
12:35	82.6	82.6	83.1	48	60.9	5	13	248	0.00	29.748 
12:40	82.2	82.2	83.0	50	61.7	5	12	248	0.00	29.747 
12:45	82.0	82.0	82.8	50	61.5	4	13	270	0.00	29.746 
12:50	81.8	81.8	82.4	49	60.7	5	10	270	0.00	29.745 
12:55	81.6	81.6	82.2	49	60.6	8	14	248	0.00	29.746 
13:00	81.6	81.6	82.3	50	61.1	5	12	270	0.00	29.745 
13:05	82.4	82.4	82.9	48	60.7	6	17	270	0.00	29.747 
13:10	82.8	82.8	83.7	50	62.2	6	17	270	0.00	29.744 
13:15	83.2	83.2	83.8	48	61.4	4	11	270	0.00	29.744 
13:20	83.0	83.0	83.4	47	60.7	5	12	270	0.00	29.739 
13:25	83.4	83.4	83.8	47	61.0	5	11	270	0.00	29.742 
13:30	83.6	83.6	83.7	45	60.0	6	13	270	0.00	29.731 
13:35	83.8	83.8	83.7	44	59.5	5	12	270	0.00	29.730 
13:40	84.0	84.0	84.1	45	60.3	5	11	248	0.00	29.730 
13:45	84.1	84.1	83.9	43	59.2	5	17	270	0.00	29.730 
13:50	84.5	84.5	84.5	44	60.2	6	15	270	0.00	29.729 
13:55	84.9	84.9	84.6	42	59.2	5	14	270	0.00	29.727 
14:00	84.3	84.3	84.3	44	60.0	6	16	270	0.00	29.721 
14:05	84.1	84.1	84.3	45	60.4	5	9	270	0.00	29.717 
14:10	84.0	84.0	84.0	44	59.7	6	13	270	0.00	29.718 
14:15	84.0	84.0	84.1	45	60.3	4	9	270	0.00	29.715 
14:20	84.3	84.3	84.1	43	59.3	6	14	248	0.00	29.713 
14:25	84.3	84.3	84.1	43	59.3	8	17	270	0.00	29.713 
14:30	84.9	84.9	84.4	41	58.5	7	14	248	0.00	29.712 
14:35	85.1	85.1	84.6	41	58.7	6	17	270	0.00	29.709 
14:40	85.1	85.1	84.8	42	59.4	6	15	270	0.00	29.708 
14:45	85.3	85.3	84.7	40	58.2	6	15	270	0.00	29.705 
14:50	85.5	85.5	85.3	42	59.8	5	9	270	0.00	29.701 
14:55	85.5	85.5	85.1	41	59.1	6	13	270	0.00	29.695 
15:00	85.1	85.1	84.8	42	59.4	7	19	270	0.00	29.697 
15:05	85.1	85.1	84.6	41	58.7	6	13	270	0.00	29.695 
15:10	85.3	85.3	85.0	42	59.6	6	16	248	0.00	29.690 
15:15	85.3	85.3	85.0	42	59.6	9	19	270	0.00	29.686 
15:20	85.3	85.3	84.8	41	58.9	8	29	270	0.00	29.684 
15:25	85.1	85.1	84.6	41	58.7	7	22	270	0.00	29.682 
15:30	84.9	84.9	84.4	41	58.5	7	21	270	0.00	29.679 
15:35	85.3	85.3	84.8	41	58.9	6	15	270	0.00	29.669 
15:40	84.9	84.9	84.6	42	59.2	6	15	270	0.00	29.674 
15:45	84.1	84.1	83.7	42	58.5	7	18	270	0.00	29.670 
15:50	83.6	83.6	83.4	43	58.7	6	14	248	0.00	29.667 
15:55	83.2	83.2	83.1	44	59.0	4	9	248	0.00	29.659 
16:00	82.6	82.6	82.5	44	58.4	6	17	270	0.00	29.670 
16:05	82.2	82.2	82.7	48	60.5	7	17	270	0.00	29.669 
16:10	80.9	80.9	81.6	50	60.5	7	27	270	0.02	29.671 
16:15	81.1	81.1	81.8	50	60.7	8	16	270	0.00	29.673 
16:20	81.2	81.2	82.3	53	62.4	6	17	270	0.00	29.672 
16:25	81.4	81.4	81.8	47	59.2	5	15	248	0.00	29.670 
16:30	81.2	81.2	81.7	48	59.6	7	18	248	0.00	29.673 
16:35	80.9	80.9	81.6	50	60.5	5	13	270	0.00	29.667 
16:40	80.1	80.1	81.0	51	60.3	5	14	248	0.00	29.672 
16:45	79.0	79.0	80.3	54	60.9	5	10	270	0.00	29.673 
16:50	79.2	79.2	80.2	51	59.5	6	15	270	0.00	29.679 
16:55	77.6	77.6	79.2	58	61.6	9	18	248	0.00	29.670 
17:00	74.2	74.2	74.2	67	62.5	6	15	248	0.01	29.680 
17:05	73.0	73.0	73.0	71	63.0	3	6	248	0.00	29.706 
17:10	72.3	72.3	72.3	74	63.5	2	6	248	0.02	29.708 
17:15	71.5	71.5	71.5	76	63.5	2	5	248	0.05	29.708 
17:20	69.6	69.6	69.6	81	63.5	3	5	315	0.11	29.762 
17:25	68.3	68.3	68.3	86	63.9	1	6	292	0.07	29.741 
17:30	67.4	67.4	67.4	87	63.4	4	10	248	0.09	29.771 
17:35	66.3	66.3	66.3	89	63.0	3	6	248	0.09	29.723 
17:40	66.3	66.3	66.3	91	63.6	3	12	248	0.00	29.711 
17:45	66.6	66.6	66.6	91	63.9	3	9	248	0.03	29.700 
17:50	66.8	66.8	66.8	92	64.4	1	4	248	0.01	29.712 
17:55	66.8	66.8	66.8	92	64.4	3	6	248	0.10	29.747 
18:00	66.8	66.8	66.8	93	64.7	1	5	292	0.11	29.736 
18:05	66.4	66.4	66.4	93	64.3	0	1	248	0.02	29.725 
18:10	66.3	66.3	66.3	93	64.2	0	2	248	0.00	29.725 
18:15	66.1	66.1	66.1	93	64.0	0	1	248	0.00	29.727 
18:20	66.1	66.1	66.1	94	64.3	0	1	248	0.05	29.729 
18:25	66.1	66.1	66.1	94	64.3	0	3	248	0.02	29.725 
18:30	66.3	66.3	66.3	94	64.5	1	2	248	0.00	29.719 
18:35	66.3	66.3	66.3	94	64.5	1	2	248	0.02	29.723 
18:40	66.3	66.3	66.3	94	64.5	0	1	248	0.01	29.724 
18:45	66.3	66.3	66.3	94	64.5	0	0	---	0.00	29.724 
18:50	66.3	66.3	66.3	94	64.5	0	0	---	0.00	29.722 
18:55	66.3	66.3	66.3	95	64.8	0	1	248	0.00	29.722 
19:00	66.4	66.4	66.4	95	64.9	0	2	248	0.00	29.724 
19:05	66.4	66.4	66.4	95	64.9	1	3	248	0.02	29.726 
19:10	66.8	66.8	66.8	95	65.3	2	5	248	0.02	29.723 
19:15	67.1	67.1	67.1	95	65.6	2	4	270	0.00	29.724 
19:20	67.3	67.3	67.3	94	65.5	1	3	270	0.00	29.730 
19:25	67.3	67.3	67.3	94	65.5	1	3	338	0.00	29.732 
19:30	67.4	67.4	67.4	94	65.6	1	4	270	0.00	29.735 
19:35	67.4	67.4	67.4	94	65.6	1	3	270	0.00	29.733 
19:40	67.4	67.4	67.4	93	65.3	0	1	292	0.00	29.733 
19:45	67.3	67.3	67.3	93	65.2	0	1	292	0.00	29.733 
19:50	67.3	67.3	67.3	93	65.2	0	1	292	0.00	29.736 
19:55	67.3	67.3	67.3	92	64.9	0	2	292	0.00	29.739 
20:00	67.3	67.3	67.3	91	64.6	1	2	292	0.00	29.744 
20:05	67.3	67.3	67.3	89	63.9	1	3	292	0.00	29.739 
20:10	67.3	67.3	67.3	88	63.6	0	2	292	0.00	29.743 
20:15	67.3	67.3	67.3	87	63.3	0	2	292	0.00	29.744 
20:20	67.1	67.1	67.1	85	62.4	1	4	292	0.00	29.746 
20:25	67.1	67.1	67.1	84	62.1	1	3	292	0.00	29.748 
20:30	67.3	67.3	67.3	81	61.3	1	4	292	0.00	29.751 
20:35	67.4	67.4	67.4	79	60.7	2	4	292	0.00	29.757 
20:40	67.3	67.3	67.3	79	60.6	1	4	270	0.00	29.759 
20:45	67.1	67.1	67.1	79	60.4	1	4	315	0.00	29.761 
20:50	66.9	66.9	66.9	79	60.2	1	3	270	0.00	29.764 
20:55	66.8	66.8	66.8	79	60.1	0	3	292	0.00	29.767 
21:00	66.8	66.8	66.8	80	60.4	0	2	292	0.00	29.776 
21:05	66.3	66.3	66.3	82	60.6	1	4	22	0.00	29.777 
21:10	65.6	65.6	65.6	83	60.3	1	5	45	0.00	29.783 
21:15	65.0	65.0	65.0	84	60.0	0	2	135	0.00	29.790 
21:20	64.3	64.3	64.3	85	59.7	0	2	135	0.00	29.792 
21:25	63.5	63.5	63.5	85	58.9	0	1	135	0.00	29.796 
21:30	63.1	63.1	63.1	85	58.5	0	1	135	0.00	29.804 
21:35	62.4	62.4	62.4	86	58.2	0	1	135	0.00	29.806 
21:40	62.1	62.1	62.1	86	57.9	1	4	135	0.00	29.806 
21:45	61.6	61.6	61.6	85	57.0	1	2	45	0.00	29.807 
21:50	61.3	61.3	61.3	85	56.7	0	3	45	0.00	29.809 
21:55	61.0	61.0	61.0	85	56.5	1	3	68	0.00	29.809 
22:00	60.7	60.7	60.7	85	56.2	1	3	68	0.00	29.810 
22:05	60.4	60.4	60.4	86	56.2	0	2	68	0.00	29.806 
22:10	60.2	60.2	60.2	86	56.0	0	1	68	0.00	29.810 
22:15	59.9	59.9	59.9	87	56.0	0	2	68	0.00	29.807 
22:20	59.6	59.6	59.6	88	56.0	0	0	---	0.00	29.815 
22:25	59.5	59.5	59.5	88	55.9	0	2	68	0.00	29.808 
22:30	59.2	59.2	59.2	87	55.3	0	2	68	0.00	29.812 
22:35	58.9	58.9	58.9	87	55.0	0	2	68	0.00	29.810 
22:40	58.7	58.7	58.7	88	55.2	0	1	68	0.00	29.809 
22:45	58.4	58.4	58.4	88	54.9	0	1	68	0.00	29.814 
22:50	58.1	58.1	58.1	88	54.6	0	2	68	0.00	29.811 
22:55	57.8	57.8	57.8	87	54.0	0	1	68	0.00	29.811 
23:00	57.6	57.6	57.6	87	53.8	0	2	68	0.00	29.810 
23:05	57.3	57.3	57.3	87	53.5	0	0	---	0.00	29.810 
23:10	57.0	57.0	57.0	87	53.2	0	0	---	0.00	29.815 
23:15	56.7	56.7	56.7	87	52.9	0	0	---	0.00	29.818 
23:20	56.5	56.5	56.5	87	52.7	0	0	---	0.00	29.818 
23:25	56.2	56.2	56.2	88	52.7	0	0	---	0.00	29.817 
23:30	55.9	55.9	55.9	88	52.4	0	0	---	0.00	29.818 
23:35	55.6	55.6	55.6	88	52.1	0	0	---	0.00	29.819 
23:40	55.4	55.4	55.4	89	52.2	0	0	---	0.00	29.822 
23:45	55.3	55.3	55.3	89	52.1	0	0	---	0.00	29.824 
23:50	55.0	55.0	55.0	89	51.8	0	0	---	0.00	29.826 
23:55	54.8	54.8	54.8	90	51.9	0	0	---	0.00	29.831 

CoCoRaHS
IN-AL-39
A2 Web Hosting
Creative Commons License
GoDaddy
Look for:

loaded 2017-12-10 21:37:17 • last modified 2010-11-18 10:43:29
Privacy PolicyDisclaimer
• wx.awcolley.com is powered by PmWiki v.2002016 •
• all content (unless otherwise noted) © 2017 A W Colley